createdAt,value
2019-03-18T00:00:01.000Z,2.062
2019-03-18T00:01:01.000Z,2.062
2019-03-18T00:02:01.000Z,1.937
2019-03-18T00:03:01.000Z,1.875
2019-03-18T00:04:01.000Z,1.875
2019-03-18T00:05:01.000Z,1.937
2019-03-18T00:06:01.000Z,1.937
2019-03-18T00:07:01.000Z,1.875
2019-03-18T00:08:02.000Z,1.812
2019-03-18T00:09:01.000Z,1.812
2019-03-18T00:10:01.000Z,1.812
2019-03-18T00:11:02.000Z,1.625
2019-03-18T00:12:01.000Z,1.562
2019-03-18T00:13:02.000Z,1.562
2019-03-18T00:14:02.000Z,1.5
2019-03-18T00:15:01.000Z,1.5
2019-03-18T00:16:02.000Z,1.437
2019-03-18T00:17:02.000Z,1.437
2019-03-18T00:18:02.000Z,1.437
2019-03-18T00:19:01.000Z,1.375
2019-03-18T00:20:02.000Z,1.375
2019-03-18T00:21:02.000Z,1.312
2019-03-18T00:22:01.000Z,1.375
2019-03-18T00:23:01.000Z,1.312
2019-03-18T00:24:01.000Z,1.312
2019-03-18T00:25:02.000Z,1.25
2019-03-18T00:26:01.000Z,1.25
2019-03-18T00:27:01.000Z,1.25
2019-03-18T00:28:01.000Z,1.25
2019-03-18T00:29:02.000Z,1.25
2019-03-18T00:30:01.000Z,1.187
2019-03-18T00:31:02.000Z,1.25
2019-03-18T00:32:02.000Z,1.187
2019-03-18T00:33:02.000Z,1.187
2019-03-18T00:34:02.000Z,1.187
2019-03-18T00:35:01.000Z,1.187
2019-03-18T00:36:01.000Z,1.187
2019-03-18T00:37:01.000Z,1.062
2019-03-18T00:38:01.000Z,1.062
2019-03-18T00:39:02.000Z,1.125
2019-03-18T00:40:01.000Z,1.187
2019-03-18T00:41:02.000Z,1.187
2019-03-18T00:42:01.000Z,1.187
2019-03-18T00:43:01.000Z,1.187
2019-03-18T00:44:02.000Z,1.187
2019-03-18T00:45:01.000Z,1.125
2019-03-18T00:46:01.000Z,1.062
2019-03-18T00:47:02.000Z,1.125
2019-03-18T00:48:01.000Z,1.125
2019-03-18T00:49:02.000Z,1.187
2019-03-18T00:50:02.000Z,1.125
2019-03-18T00:51:02.000Z,1.187
2019-03-18T00:52:01.000Z,1.187
2019-03-18T00:53:02.000Z,1.125
2019-03-18T00:54:01.000Z,1.125
2019-03-18T00:55:01.000Z,1.062
2019-03-18T00:56:01.000Z,1
2019-03-18T00:57:02.000Z,0.937
2019-03-18T00:58:01.000Z,0.875
2019-03-18T00:59:01.000Z,0.875
2019-03-18T01:00:02.000Z,0.937
2019-03-18T01:01:02.000Z,0.875
2019-03-18T01:02:01.000Z,0.875
2019-03-18T01:03:02.000Z,0.875
2019-03-18T01:04:01.000Z,0.875
2019-03-18T01:05:01.000Z,0.937
2019-03-18T01:06:02.000Z,0.937
2019-03-18T01:07:01.000Z,0.937
2019-03-18T01:08:01.000Z,0.875
2019-03-18T01:09:01.000Z,0.875
2019-03-18T01:10:02.000Z,0.875
2019-03-18T01:11:01.000Z,0.937
2019-03-18T01:12:01.000Z,0.875
2019-03-18T01:13:02.000Z,0.812
2019-03-18T01:14:02.000Z,0.812
2019-03-18T01:15:01.000Z,0.812
2019-03-18T01:16:01.000Z,0.812
2019-03-18T01:17:01.000Z,0.937
2019-03-18T01:18:02.000Z,1
2019-03-18T01:19:01.000Z,1.062
2019-03-18T01:20:02.000Z,1.062
2019-03-18T01:21:01.000Z,1.125
2019-03-18T01:22:01.000Z,1.187
2019-03-18T01:23:01.000Z,1.187
2019-03-18T01:24:01.000Z,1.187
2019-03-18T01:25:01.000Z,1.187
2019-03-18T01:26:01.000Z,1.125
2019-03-18T01:27:02.000Z,1.062
2019-03-18T01:28:01.000Z,1.062
2019-03-18T01:29:02.000Z,1.062
2019-03-18T01:30:01.000Z,1.062
2019-03-18T01:31:01.000Z,1.062
2019-03-18T01:32:02.000Z,1.062
2019-03-18T01:33:01.000Z,1.062
2019-03-18T01:34:01.000Z,1
2019-03-18T01:35:02.000Z,1
2019-03-18T01:36:01.000Z,0.812
2019-03-18T01:37:01.000Z,0.812
2019-03-18T01:38:01.000Z,0.812
2019-03-18T01:39:02.000Z,0.875
2019-03-18T01:40:01.000Z,0.812
2019-03-18T01:41:01.000Z,0.812
2019-03-18T01:42:02.000Z,0.875
2019-03-18T01:43:01.000Z,0.937
2019-03-18T01:44:01.000Z,0.875
2019-03-18T01:45:01.000Z,0.812
2019-03-18T01:46:01.000Z,0.812
2019-03-18T01:47:01.000Z,0.75
2019-03-18T01:48:01.000Z,0.75
2019-03-18T01:49:02.000Z,0.75
2019-03-18T01:50:02.000Z,0.687
2019-03-18T01:51:01.000Z,0.625
2019-03-18T01:52:02.000Z,0.625
2019-03-18T01:53:01.000Z,0.625
2019-03-18T01:54:02.000Z,0.625
2019-03-18T01:55:01.000Z,0.687
2019-03-18T01:56:01.000Z,0.75
2019-03-18T01:57:02.000Z,0.687
2019-03-18T01:58:02.000Z,0.687
2019-03-18T01:59:01.000Z,0.625
2019-03-18T02:00:01.000Z,0.625
2019-03-18T02:01:01.000Z,0.625
2019-03-18T02:02:02.000Z,0.562
2019-03-18T02:03:01.000Z,0.625
2019-03-18T02:04:01.000Z,0.687
2019-03-18T02:05:01.000Z,0.687
2019-03-18T02:06:02.000Z,0.625
2019-03-18T02:07:02.000Z,0.625
2019-03-18T02:08:01.000Z,0.625
2019-03-18T02:09:02.000Z,0.687
2019-03-18T02:10:01.000Z,0.687
2019-03-18T02:11:01.000Z,0.625
2019-03-18T02:12:01.000Z,0.625
2019-03-18T02:13:02.000Z,0.562
2019-03-18T02:14:02.000Z,0.562
2019-03-18T02:15:01.000Z,0.437
2019-03-18T02:16:02.000Z,0.437
2019-03-18T02:17:02.000Z,0.437
2019-03-18T02:18:02.000Z,0.437
2019-03-18T02:19:01.000Z,0.437
2019-03-18T02:20:02.000Z,0.5
2019-03-18T02:21:01.000Z,0.437
2019-03-18T02:22:01.000Z,0.437
2019-03-18T02:23:01.000Z,0.437
2019-03-18T02:24:02.000Z,0.375
2019-03-18T02:25:01.000Z,0.437
2019-03-18T02:26:02.000Z,0.437
2019-03-18T02:27:02.000Z,0.437
2019-03-18T02:28:01.000Z,0.5
2019-03-18T02:29:02.000Z,0.5
2019-03-18T02:30:01.000Z,0.562
2019-03-18T02:31:02.000Z,0.5
2019-03-18T02:32:01.000Z,0.5
2019-03-18T02:33:01.000Z,0.562
2019-03-18T02:34:02.000Z,0.562
2019-03-18T02:35:01.000Z,0.562
2019-03-18T02:36:02.000Z,0.625
2019-03-18T02:37:01.000Z,0.625
2019-03-18T02:38:01.000Z,0.625
2019-03-18T02:39:01.000Z,0.625
2019-03-18T02:40:02.000Z,0.625
2019-03-18T02:41:02.000Z,0.687
2019-03-18T02:42:01.000Z,0.75
2019-03-18T02:43:01.000Z,0.812
2019-03-18T02:44:02.000Z,0.875
2019-03-18T02:45:01.000Z,0.937
2019-03-18T02:46:01.000Z,0.875
2019-03-18T02:47:02.000Z,0.875
2019-03-18T02:48:01.000Z,0.875
2019-03-18T02:49:01.000Z,0.875
2019-03-18T02:50:01.000Z,0.937
2019-03-18T02:51:02.000Z,0.937
2019-03-18T02:52:01.000Z,1
2019-03-18T02:53:01.000Z,1
2019-03-18T02:54:01.000Z,1.125
2019-03-18T02:55:01.000Z,1.062
2019-03-18T02:56:02.000Z,1.062
2019-03-18T02:57:01.000Z,1.125
2019-03-18T02:58:02.000Z,1
2019-03-18T02:59:02.000Z,1
2019-03-18T03:00:01.000Z,1
2019-03-18T03:01:01.000Z,1.062
2019-03-18T03:02:01.000Z,1.125
2019-03-18T03:03:02.000Z,1.062
2019-03-18T03:04:02.000Z,1.062
2019-03-18T03:05:01.000Z,1.062
2019-03-18T03:06:01.000Z,1.062
2019-03-18T03:07:01.000Z,1.062
2019-03-18T03:08:01.000Z,1.125
2019-03-18T03:09:01.000Z,1.187
2019-03-18T03:10:02.000Z,1.312
2019-03-18T03:11:02.000Z,1.312
2019-03-18T03:12:02.000Z,1.375
2019-03-18T03:13:01.000Z,1.437
2019-03-18T03:14:02.000Z,1.437
2019-03-18T03:15:01.000Z,1.5
2019-03-18T03:16:01.000Z,1.437
2019-03-18T03:17:01.000Z,1.5
2019-03-18T03:18:02.000Z,1.562
2019-03-18T03:19:01.000Z,1.562
2019-03-18T03:20:02.000Z,1.562
2019-03-18T03:21:01.000Z,1.562
2019-03-18T03:22:01.000Z,1.5
2019-03-18T03:23:02.000Z,1.562
2019-03-18T03:24:01.000Z,1.5
2019-03-18T03:25:02.000Z,1.562
2019-03-18T03:26:01.000Z,1.562
2019-03-18T03:27:01.000Z,1.562
2019-03-18T03:28:01.000Z,1.562
2019-03-18T03:29:02.000Z,1.5
2019-03-18T03:30:01.000Z,1.5
2019-03-18T03:31:01.000Z,1.562
2019-03-18T03:32:02.000Z,1.5
2019-03-18T03:33:01.000Z,1.562
2019-03-18T03:34:01.000Z,1.562
2019-03-18T03:35:01.000Z,1.625
2019-03-18T03:36:01.000Z,1.562
2019-03-18T03:37:02.000Z,1.562
2019-03-18T03:38:02.000Z,1.562
2019-03-18T03:39:01.000Z,1.562
2019-03-18T03:40:01.000Z,1.562
2019-03-18T03:41:02.000Z,1.562
2019-03-18T03:42:02.000Z,1.5
2019-03-18T03:43:02.000Z,1.5
2019-03-18T03:44:02.000Z,1.437
2019-03-18T03:45:01.000Z,1.5
2019-03-18T03:46:02.000Z,1.5
2019-03-18T03:47:01.000Z,1.5
2019-03-18T03:48:01.000Z,1.5
2019-03-18T03:49:01.000Z,1.5
2019-03-18T03:50:01.000Z,1.437
2019-03-18T03:51:02.000Z,1.437
2019-03-18T03:52:01.000Z,1.375
2019-03-18T03:53:01.000Z,1.312
2019-03-18T03:54:02.000Z,1.312
2019-03-18T03:55:01.000Z,1.312
2019-03-18T03:56:01.000Z,1.312
2019-03-18T03:57:02.000Z,1.25
2019-03-18T03:58:01.000Z,1.25
2019-03-18T03:59:01.000Z,1.187
2019-03-18T04:00:01.000Z,1.125
2019-03-18T04:01:01.000Z,1.125
2019-03-18T04:02:01.000Z,1.062
2019-03-18T04:03:01.000Z,1.062
2019-03-18T04:04:02.000Z,1.062
2019-03-18T04:05:01.000Z,1.062
2019-03-18T04:06:01.000Z,1.062
2019-03-18T04:07:02.000Z,1.062
2019-03-18T04:08:02.000Z,1.062
2019-03-18T04:09:01.000Z,1
2019-03-18T04:10:02.000Z,1.062
2019-03-18T04:11:01.000Z,1.062
2019-03-18T04:12:01.000Z,1.125
2019-03-18T04:13:02.000Z,1.187
2019-03-18T04:14:01.000Z,1.25
2019-03-18T04:15:01.000Z,1.312
2019-03-18T04:16:02.000Z,1.312
2019-03-18T04:17:02.000Z,1.312
2019-03-18T04:18:01.000Z,1.312
2019-03-18T04:19:01.000Z,1.375
2019-03-18T04:20:02.000Z,1.375
2019-03-18T04:21:01.000Z,1.375
2019-03-18T04:22:02.000Z,1.312
2019-03-18T04:23:02.000Z,1.312
2019-03-18T04:24:01.000Z,1.312
2019-03-18T04:25:01.000Z,1.375
2019-03-18T04:26:02.000Z,1.375
2019-03-18T04:27:01.000Z,1.375
2019-03-18T04:28:01.000Z,1.312
2019-03-18T04:29:01.000Z,1.25
2019-03-18T04:30:02.000Z,1.25
2019-03-18T04:31:01.000Z,1.25
2019-03-18T04:32:02.000Z,1.312
2019-03-18T04:33:02.000Z,1.437
2019-03-18T04:34:01.000Z,1.5
2019-03-18T04:35:01.000Z,1.625
2019-03-18T04:36:01.000Z,1.75
2019-03-18T04:37:02.000Z,1.812
2019-03-18T04:38:01.000Z,1.875
2019-03-18T04:39:01.000Z,1.875
2019-03-18T04:40:02.000Z,1.937
2019-03-18T04:41:01.000Z,2.062
2019-03-18T04:42:01.000Z,2.187
2019-03-18T04:43:02.000Z,2.25
2019-03-18T04:44:02.000Z,2.312
2019-03-18T04:45:01.000Z,2.375
2019-03-18T04:46:02.000Z,2.437
2019-03-18T04:47:02.000Z,2.5
2019-03-18T04:48:02.000Z,2.5
2019-03-18T04:49:01.000Z,2.5
2019-03-18T04:50:01.000Z,2.5
2019-03-18T04:51:01.000Z,2.562
2019-03-18T04:52:02.000Z,2.625
2019-03-18T04:53:01.000Z,2.625
2019-03-18T04:54:01.000Z,2.687
2019-03-18T04:55:01.000Z,2.625
2019-03-18T04:56:01.000Z,2.625
2019-03-18T04:57:01.000Z,2.687
2019-03-18T04:58:01.000Z,2.687
2019-03-18T04:59:02.000Z,2.687
2019-03-18T05:00:01.000Z,2.687
2019-03-18T05:01:01.000Z,2.687
2019-03-18T05:02:02.000Z,2.687
2019-03-18T05:03:01.000Z,2.687
2019-03-18T05:04:02.000Z,2.687
2019-03-18T05:05:02.000Z,2.75
2019-03-18T05:06:01.000Z,2.75
2019-03-18T05:07:01.000Z,2.75
2019-03-18T05:08:02.000Z,2.812
2019-03-18T05:09:01.000Z,2.812
2019-03-18T05:10:02.000Z,2.812
2019-03-18T05:11:01.000Z,2.812
2019-03-18T05:12:02.000Z,2.812
2019-03-18T05:13:01.000Z,2.875
2019-03-18T05:14:01.000Z,2.875
2019-03-18T05:15:02.000Z,2.875
2019-03-18T05:16:01.000Z,2.875
2019-03-18T05:17:02.000Z,2.937
2019-03-18T05:18:01.000Z,2.937
2019-03-18T05:19:01.000Z,3
2019-03-18T05:20:02.000Z,2.937
2019-03-18T05:21:01.000Z,3
2019-03-18T05:22:01.000Z,3
2019-03-18T05:23:01.000Z,3
2019-03-18T05:24:02.000Z,3
2019-03-18T05:25:02.000Z,3
2019-03-18T05:26:02.000Z,3
2019-03-18T05:27:01.000Z,3
2019-03-18T05:28:01.000Z,3.062
2019-03-18T05:29:01.000Z,3.125
2019-03-18T05:30:02.000Z,3.125
2019-03-18T05:31:01.000Z,3.125
2019-03-18T05:32:02.000Z,3.125
2019-03-18T05:33:01.000Z,3.125
2019-03-18T05:34:02.000Z,3.187
2019-03-18T05:35:01.000Z,3.125
2019-03-18T05:36:02.000Z,3.187
2019-03-18T05:37:02.000Z,3.187
2019-03-18T05:38:01.000Z,3.187
2019-03-18T05:39:01.000Z,3.187
2019-03-18T05:40:01.000Z,3.187
2019-03-18T05:41:02.000Z,3.187
2019-03-18T05:42:02.000Z,3.125
2019-03-18T05:43:01.000Z,3.125
2019-03-18T05:44:01.000Z,3.187
2019-03-18T05:45:02.000Z,3.187
2019-03-18T05:46:01.000Z,3.187
2019-03-18T05:47:01.000Z,3.187
2019-03-18T05:48:02.000Z,3.187
2019-03-18T05:49:02.000Z,3.187
2019-03-18T05:50:01.000Z,3.25
2019-03-18T05:51:02.000Z,3.25
2019-03-18T05:52:01.000Z,3.25
2019-03-18T05:53:01.000Z,3.312
2019-03-18T05:54:02.000Z,3.312
2019-03-18T05:55:01.000Z,3.312
2019-03-18T05:56:01.000Z,3.312
2019-03-18T05:57:02.000Z,3.312
2019-03-18T05:58:01.000Z,3.312
2019-03-18T05:59:01.000Z,3.312
2019-03-18T06:00:02.000Z,3.312
2019-03-18T06:01:01.000Z,3.312
2019-03-18T06:02:01.000Z,3.375
2019-03-18T06:03:01.000Z,3.375
2019-03-18T06:04:01.000Z,3.375
2019-03-18T06:05:01.000Z,3.375
2019-03-18T06:06:01.000Z,3.437
2019-03-18T06:07:02.000Z,3.437
2019-03-18T06:08:01.000Z,3.437
2019-03-18T06:09:02.000Z,3.5
2019-03-18T06:10:01.000Z,3.562
2019-03-18T06:11:01.000Z,3.625
2019-03-18T06:12:01.000Z,3.687
2019-03-18T06:13:01.000Z,3.75
2019-03-18T06:14:01.000Z,3.812
2019-03-18T06:15:01.000Z,3.875
2019-03-18T06:16:02.000Z,3.875
2019-03-18T06:17:01.000Z,3.937
2019-03-18T06:18:01.000Z,3.937
2019-03-18T06:19:01.000Z,3.937
2019-03-18T06:20:01.000Z,4
2019-03-18T06:21:02.000Z,4
2019-03-18T06:22:01.000Z,4
2019-03-18T06:23:01.000Z,4.062
2019-03-18T06:24:01.000Z,4.062
2019-03-18T06:25:02.000Z,4.062
2019-03-18T06:26:01.000Z,4.062
2019-03-18T06:27:02.000Z,4.062
2019-03-18T06:28:01.000Z,4.062
2019-03-18T06:29:01.000Z,4.062
2019-03-18T06:30:02.000Z,4
2019-03-18T06:31:01.000Z,4
2019-03-18T06:32:01.000Z,4.062
2019-03-18T06:33:01.000Z,4.062
2019-03-18T06:34:02.000Z,4.062
2019-03-18T06:35:01.000Z,4.062
2019-03-18T06:36:01.000Z,4.125
2019-03-18T06:37:01.000Z,4.125
2019-03-18T06:38:02.000Z,4.125
2019-03-18T06:39:02.000Z,4.125
2019-03-18T06:40:01.000Z,4.187
2019-03-18T06:41:02.000Z,4.25
2019-03-18T06:42:01.000Z,4.25
2019-03-18T06:43:01.000Z,4.312
2019-03-18T06:44:02.000Z,4.312
2019-03-18T06:45:01.000Z,4.312
2019-03-18T06:46:01.000Z,4.375
2019-03-18T06:47:01.000Z,4.375
2019-03-18T06:48:02.000Z,4.375
2019-03-18T06:49:02.000Z,4.375
2019-03-18T06:50:01.000Z,4.375
2019-03-18T06:51:02.000Z,4.312
2019-03-18T06:52:01.000Z,4.312
2019-03-18T06:53:01.000Z,4.375
2019-03-18T06:54:01.000Z,4.375
2019-03-18T06:55:01.000Z,4.5
2019-03-18T06:56:01.000Z,4.625
2019-03-18T06:57:02.000Z,4.687
2019-03-18T06:58:01.000Z,4.75
2019-03-18T06:59:01.000Z,4.812
2019-03-18T07:00:02.000Z,4.875
2019-03-18T07:01:01.000Z,4.875
2019-03-18T07:02:01.000Z,4.937
2019-03-18T07:03:01.000Z,4.937
2019-03-18T07:04:01.000Z,5
2019-03-18T07:05:02.000Z,5
2019-03-18T07:06:01.000Z,5.062
2019-03-18T07:07:01.000Z,5.125
2019-03-18T07:08:02.000Z,5.125
2019-03-18T07:09:02.000Z,5.187
2019-03-18T07:10:01.000Z,5.187
2019-03-18T07:11:01.000Z,5.25
2019-03-18T07:12:02.000Z,5.25
2019-03-18T07:13:01.000Z,5.25
2019-03-18T07:14:01.000Z,5.25
2019-03-18T07:15:02.000Z,5.312
2019-03-18T07:16:01.000Z,5.312
2019-03-18T07:17:01.000Z,5.375
2019-03-18T07:18:01.000Z,5.375
2019-03-18T07:19:01.000Z,5.312
2019-03-18T07:20:02.000Z,5.312
2019-03-18T07:21:01.000Z,5.312
2019-03-18T07:22:02.000Z,5.312
2019-03-18T07:23:01.000Z,5.312
2019-03-18T07:24:01.000Z,5.25
2019-03-18T07:25:01.000Z,5.25
2019-03-18T07:26:02.000Z,5.25
2019-03-18T07:27:01.000Z,5.25
2019-03-18T07:28:01.000Z,5.25
2019-03-18T07:29:01.000Z,5.312
2019-03-18T07:30:01.000Z,5.312
2019-03-18T07:31:01.000Z,5.312
2019-03-18T07:32:01.000Z,5.437
2019-03-18T07:33:01.000Z,5.562
2019-03-18T07:34:01.000Z,5.562
2019-03-18T07:35:01.000Z,5.625
2019-03-18T07:36:01.000Z,5.687
2019-03-18T07:37:01.000Z,5.75
2019-03-18T07:38:02.000Z,5.812
2019-03-18T07:39:02.000Z,5.875
2019-03-18T07:40:01.000Z,5.937
2019-03-18T07:41:02.000Z,6
2019-03-18T07:42:01.000Z,6.062
2019-03-18T07:43:01.000Z,6.125
2019-03-18T07:44:01.000Z,6.125
2019-03-18T07:45:02.000Z,6.187
2019-03-18T07:46:01.000Z,6.187
2019-03-18T07:47:01.000Z,6.25
2019-03-18T07:48:01.000Z,6.25
2019-03-18T07:49:02.000Z,6.312
2019-03-18T07:50:01.000Z,6.312
2019-03-18T07:51:01.000Z,6.25
2019-03-18T07:52:02.000Z,6.25
2019-03-18T07:53:02.000Z,6.25
2019-03-18T07:54:01.000Z,6.187
2019-03-18T07:55:01.000Z,6.125
2019-03-18T07:56:01.000Z,6.25
2019-03-18T07:57:02.000Z,6.312
2019-03-18T07:58:01.000Z,6.375
2019-03-18T07:59:01.000Z,6.5
2019-03-18T08:00:01.000Z,6.5
2019-03-18T08:01:01.000Z,6.562
2019-03-18T08:02:01.000Z,6.562
2019-03-18T08:03:01.000Z,6.625
2019-03-18T08:04:02.000Z,6.687
2019-03-18T08:05:01.000Z,6.562
2019-03-18T08:06:01.000Z,6.562
2019-03-18T08:07:02.000Z,6.562
2019-03-18T08:08:02.000Z,6.625
2019-03-18T08:09:01.000Z,6.687
2019-03-18T08:10:02.000Z,6.687
2019-03-18T08:11:01.000Z,6.687
2019-03-18T08:12:01.000Z,6.75
2019-03-18T08:13:02.000Z,6.75
2019-03-18T08:14:01.000Z,6.562
2019-03-18T08:15:01.000Z,6.562
2019-03-18T08:16:01.000Z,6.5
2019-03-18T08:17:02.000Z,6.437
2019-03-18T08:18:01.000Z,6.5
2019-03-18T08:19:01.000Z,6.5
2019-03-18T08:20:01.000Z,6.5
2019-03-18T08:21:02.000Z,6.562
2019-03-18T08:22:01.000Z,6.625
2019-03-18T08:23:02.000Z,6.687
2019-03-18T08:24:01.000Z,6.625
2019-03-18T08:25:01.000Z,6.812
2019-03-18T08:26:01.000Z,7.125
2019-03-18T08:27:02.000Z,7.562
2019-03-18T08:28:01.000Z,7.937
2019-03-18T08:29:02.000Z,8.312
2019-03-18T08:30:01.000Z,8.625
2019-03-18T08:31:01.000Z,8.687
2019-03-18T08:32:01.000Z,8.625
2019-03-18T08:33:01.000Z,8.437
2019-03-18T08:34:01.000Z,8.312
2019-03-18T08:35:01.000Z,8.25
2019-03-18T08:36:01.000Z,8.187
2019-03-18T08:37:02.000Z,8.187
2019-03-18T08:38:02.000Z,8.125
2019-03-18T08:39:01.000Z,8.125
2019-03-18T08:40:02.000Z,8.125
2019-03-18T08:41:02.000Z,8.062
2019-03-18T08:42:01.000Z,8
2019-03-18T08:43:02.000Z,7.875
2019-03-18T08:44:01.000Z,7.75
2019-03-18T08:45:02.000Z,7.562
2019-03-18T08:46:02.000Z,7.375
2019-03-18T08:47:02.000Z,7.312
2019-03-18T08:48:01.000Z,7.187
2019-03-18T08:49:01.000Z,7.125
2019-03-18T08:50:02.000Z,6.937
2019-03-18T08:51:01.000Z,6.937
2019-03-18T08:52:01.000Z,6.875
2019-03-18T08:53:01.000Z,6.812
2019-03-18T08:54:01.000Z,6.812
2019-03-18T08:55:02.000Z,6.75
2019-03-18T08:56:01.000Z,6.812
2019-03-18T08:57:01.000Z,6.812
2019-03-18T08:58:01.000Z,6.812
2019-03-18T08:59:01.000Z,6.687
2019-03-18T09:00:01.000Z,6.625
2019-03-18T09:01:01.000Z,6.687
2019-03-18T09:02:02.000Z,6.687
2019-03-18T09:03:01.000Z,6.687
2019-03-18T09:04:01.000Z,6.687
2019-03-18T09:05:01.000Z,6.687
2019-03-18T09:06:02.000Z,6.625
2019-03-18T09:07:01.000Z,6.687
2019-03-18T09:08:02.000Z,6.687
2019-03-18T09:09:01.000Z,6.75
2019-03-18T09:10:01.000Z,6.812
2019-03-18T09:11:01.000Z,6.812
2019-03-18T09:12:01.000Z,7
2019-03-18T09:13:02.000Z,7.187
2019-03-18T09:14:01.000Z,7.312
2019-03-18T09:15:01.000Z,7.375
2019-03-18T09:16:02.000Z,7.25
2019-03-18T09:17:02.000Z,7.25
2019-03-18T09:18:01.000Z,7.187
2019-03-18T09:19:01.000Z,7.25
2019-03-18T09:20:01.000Z,7.25
2019-03-18T09:21:01.000Z,7.25
2019-03-18T09:22:01.000Z,7.25
2019-03-18T09:23:02.000Z,7.375
2019-03-18T09:24:02.000Z,7.5
2019-03-18T09:25:01.000Z,7.437
2019-03-18T09:26:02.000Z,7.375
2019-03-18T09:27:01.000Z,7.312
2019-03-18T09:28:01.000Z,7.25
2019-03-18T09:29:02.000Z,7.25
2019-03-18T09:30:02.000Z,7.25
2019-03-18T09:31:01.000Z,7.312
2019-03-18T09:32:01.000Z,7.375
2019-03-18T09:33:01.000Z,7.562
2019-03-18T09:34:01.000Z,7.75
2019-03-18T09:35:01.000Z,7.937
2019-03-18T09:36:01.000Z,8.062
2019-03-18T09:37:02.000Z,8.187
2019-03-18T09:38:01.000Z,8.375
2019-03-18T09:39:01.000Z,8.5
2019-03-18T09:40:01.000Z,8.562
2019-03-18T09:41:01.000Z,8.687
2019-03-18T09:42:01.000Z,8.562
2019-03-18T09:43:01.000Z,8.5
2019-03-18T09:44:02.000Z,8.312
2019-03-18T09:45:01.000Z,8.312
2019-03-18T09:46:01.000Z,8.437
2019-03-18T09:47:01.000Z,8.5
2019-03-18T09:48:02.000Z,8.5
2019-03-18T09:49:01.000Z,8.687
2019-03-18T09:50:01.000Z,8.687
2019-03-18T09:51:01.000Z,8.625
2019-03-18T09:52:01.000Z,8.687
2019-03-18T09:53:02.000Z,8.75
2019-03-18T09:54:01.000Z,8.75
2019-03-18T09:55:02.000Z,8.687
2019-03-18T09:56:01.000Z,8.687
2019-03-18T09:57:01.000Z,8.687
2019-03-18T09:58:01.000Z,8.687
2019-03-18T09:59:01.000Z,8.687
2019-03-18T10:00:02.000Z,8.75
2019-03-18T10:01:01.000Z,8.812
2019-03-18T10:02:02.000Z,8.687
2019-03-18T10:03:02.000Z,8.687
2019-03-18T10:04:01.000Z,8.687
2019-03-18T10:05:02.000Z,8.625
2019-03-18T10:06:01.000Z,8.562
2019-03-18T10:07:02.000Z,8.437
2019-03-18T10:08:02.000Z,8.375
2019-03-18T10:09:02.000Z,8.312
2019-03-18T10:10:01.000Z,8.187
2019-03-18T10:11:01.000Z,8.062
2019-03-18T10:12:02.000Z,7.875
2019-03-18T10:13:02.000Z,7.937
2019-03-18T10:14:01.000Z,7.875
2019-03-18T10:15:02.000Z,7.937
2019-03-18T10:16:01.000Z,7.937
2019-03-18T10:17:02.000Z,7.812
2019-03-18T10:18:01.000Z,7.875
2019-03-18T10:19:01.000Z,7.812
2019-03-18T10:20:01.000Z,7.812
2019-03-18T10:21:01.000Z,7.75
2019-03-18T10:22:02.000Z,7.687
2019-03-18T10:23:01.000Z,7.625
2019-03-18T10:24:02.000Z,7.625
2019-03-18T10:25:01.000Z,7.625
2019-03-18T10:26:01.000Z,7.625
2019-03-18T10:27:01.000Z,7.625
2019-03-18T10:28:01.000Z,7.75
2019-03-18T10:29:02.000Z,7.875
2019-03-18T10:30:02.000Z,8
2019-03-18T10:31:01.000Z,8.062
2019-03-18T10:32:02.000Z,8.125
2019-03-18T10:33:01.000Z,8.25
2019-03-18T10:34:01.000Z,8.312
2019-03-18T10:35:02.000Z,8.375
2019-03-18T10:36:01.000Z,8.5
2019-03-18T10:37:01.000Z,8.562
2019-03-18T10:38:02.000Z,8.562
2019-03-18T10:39:02.000Z,8.625
2019-03-18T10:40:01.000Z,8.687
2019-03-18T10:41:02.000Z,8.687
2019-03-18T10:42:01.000Z,8.687
2019-03-18T10:43:02.000Z,8.687
2019-03-18T10:44:01.000Z,8.687
2019-03-18T10:45:01.000Z,8.687
2019-03-18T10:46:02.000Z,8.687
2019-03-18T10:47:01.000Z,8.75
2019-03-18T10:48:01.000Z,8.812
2019-03-18T10:49:01.000Z,8.812
2019-03-18T10:50:01.000Z,8.875
2019-03-18T10:51:02.000Z,8.812
2019-03-18T10:52:01.000Z,8.812
2019-03-18T10:53:01.000Z,8.812
2019-03-18T10:54:01.000Z,8.875
2019-03-18T10:55:02.000Z,9
2019-03-18T10:56:01.000Z,9.125
2019-03-18T10:57:01.000Z,9.25
2019-03-18T10:58:01.000Z,9.375
2019-03-18T10:59:01.000Z,9.437
2019-03-18T11:00:01.000Z,9.437
2019-03-18T11:01:02.000Z,9.562
2019-03-18T11:02:01.000Z,9.562
2019-03-18T11:03:02.000Z,9.562
2019-03-18T11:04:01.000Z,9.312
2019-03-18T11:05:01.000Z,9.437
2019-03-18T11:06:01.000Z,9.437
2019-03-18T11:07:02.000Z,9.437
2019-03-18T11:08:01.000Z,9.437
2019-03-18T11:09:01.000Z,9.375
2019-03-18T11:10:02.000Z,9.437
2019-03-18T11:11:01.000Z,9.5
2019-03-18T11:12:01.000Z,9.687
2019-03-18T11:13:01.000Z,9.75
2019-03-18T11:14:02.000Z,9.875
2019-03-18T11:15:02.000Z,9.812
2019-03-18T11:16:01.000Z,9.75
2019-03-18T11:17:01.000Z,9.812
2019-03-18T11:18:01.000Z,9.875
2019-03-18T11:19:01.000Z,9.937
2019-03-18T11:20:01.000Z,10
2019-03-18T11:21:02.000Z,10.062
2019-03-18T11:22:01.000Z,10.25
2019-03-18T11:23:01.000Z,10.25
2019-03-18T11:24:02.000Z,10.312
2019-03-18T11:25:01.000Z,10.25
2019-03-18T11:26:01.000Z,10.187
2019-03-18T11:27:02.000Z,9.875
2019-03-18T11:28:02.000Z,9.625
2019-03-18T11:29:01.000Z,9.5
2019-03-18T11:30:02.000Z,9.437
2019-03-18T11:31:01.000Z,9.437
2019-03-18T11:32:02.000Z,9.437
2019-03-18T11:33:01.000Z,9.312
2019-03-18T11:34:01.000Z,9.187
2019-03-18T11:35:02.000Z,9.25
2019-03-18T11:36:01.000Z,9.375
2019-03-18T11:37:01.000Z,9.5
2019-03-18T11:38:01.000Z,9.312
2019-03-18T11:39:02.000Z,9.375
2019-03-18T11:40:01.000Z,9.562
2019-03-18T11:41:01.000Z,9.75
2019-03-18T11:42:02.000Z,9.937
2019-03-18T11:43:01.000Z,10
2019-03-18T11:44:01.000Z,10.062
2019-03-18T11:45:02.000Z,10.187
2019-03-18T11:46:01.000Z,10.25
2019-03-18T11:47:01.000Z,10.312
2019-03-18T11:48:01.000Z,10.312
2019-03-18T11:49:02.000Z,10.25
2019-03-18T11:50:01.000Z,10.187
2019-03-18T11:51:01.000Z,10.312
2019-03-18T11:52:02.000Z,10.062
2019-03-18T11:53:01.000Z,10
2019-03-18T11:54:02.000Z,9.937
2019-03-18T11:55:01.000Z,9.937
2019-03-18T11:56:01.000Z,9.75
2019-03-18T11:57:01.000Z,9.625
2019-03-18T11:58:01.000Z,9.5
2019-03-18T11:59:02.000Z,9.5
2019-03-18T12:00:01.000Z,9.437
2019-03-18T12:01:01.000Z,9.375
2019-03-18T12:02:02.000Z,9.25
2019-03-18T12:03:01.000Z,9.125
2019-03-18T12:04:01.000Z,9.125
2019-03-18T12:05:01.000Z,9.187
2019-03-18T12:06:01.000Z,9.312
2019-03-18T12:07:02.000Z,9.5
2019-03-18T12:08:01.000Z,9.5
2019-03-18T12:09:01.000Z,9.375
2019-03-18T12:10:02.000Z,9.187
2019-03-18T12:11:01.000Z,9
2019-03-18T12:12:01.000Z,8.812
2019-03-18T12:13:01.000Z,8.625
2019-03-18T12:14:02.000Z,8.562
2019-03-18T12:15:01.000Z,8.562
2019-03-18T12:16:01.000Z,8.375
2019-03-18T12:17:01.000Z,8.25
2019-03-18T12:18:01.000Z,8.312
2019-03-18T12:19:01.000Z,8.25
2019-03-18T12:20:01.000Z,8.25
2019-03-18T12:21:02.000Z,8.25
2019-03-18T12:22:01.000Z,8.25
2019-03-18T12:23:02.000Z,8.312
2019-03-18T12:24:01.000Z,8.312
2019-03-18T12:25:01.000Z,8.312
2019-03-18T12:26:02.000Z,8.312
2019-03-18T12:27:01.000Z,8.312
2019-03-18T12:28:02.000Z,8.375
2019-03-18T12:29:01.000Z,8.375
2019-03-18T12:30:01.000Z,8.437
2019-03-18T12:31:01.000Z,8.437
2019-03-18T12:32:01.000Z,8.562
2019-03-18T12:33:02.000Z,8.625
2019-03-18T12:34:01.000Z,8.625
2019-03-18T12:35:02.000Z,8.75
2019-03-18T12:36:01.000Z,8.875
2019-03-18T12:37:01.000Z,9.062
2019-03-18T12:38:02.000Z,9.312
2019-03-18T12:39:01.000Z,9.375
2019-03-18T12:40:01.000Z,9.562
2019-03-18T12:41:01.000Z,9.75
2019-03-18T12:42:02.000Z,9.812
2019-03-18T12:43:01.000Z,9.812
2019-03-18T12:44:01.000Z,9.937
2019-03-18T12:45:02.000Z,9.875
2019-03-18T12:46:02.000Z,9.812
2019-03-18T12:47:01.000Z,9.812
2019-03-18T12:48:02.000Z,9.625
2019-03-18T12:49:02.000Z,9.5
2019-03-18T12:50:01.000Z,9.562
2019-03-18T12:51:01.000Z,9.625
2019-03-18T12:52:02.000Z,9.812
2019-03-18T12:53:01.000Z,9.937
2019-03-18T12:54:02.000Z,9.937
2019-03-18T12:55:02.000Z,9.937
2019-03-18T12:56:01.000Z,9.812
2019-03-18T12:57:01.000Z,9.687
2019-03-18T12:58:02.000Z,9.625
2019-03-18T12:59:01.000Z,9.625
2019-03-18T13:00:02.000Z,9.687
2019-03-18T13:01:02.000Z,9.562
2019-03-18T13:02:02.000Z,9.687